Aviation Digital Data Service (ADDS)

Output produced by METARs form (1810 UTC 19 August 2019)
found at http://www.aviationweather.gov/metar/data/
 
METAR text: EIDW 191800Z 26013KT 9999 VCSH FEW018CB BKN060 15/09 Q1014 NOSIG
Conditions at: EIDW (DUBLIN AIRPORT , IE) observed 1800 UTC 19 August 2019
Temperature: 15.0°C (59°F)
Dewpoint: 9.0°C (48°F) [RH = 67%]
Pressure (altimeter): 29.94 inches Hg (1014.0 mb)
Winds: from the W (260 degrees) at 15 MPH (13 knots; 6.7 m/s)
Visibility: 6 or more miles (10+ km)
Ceiling: 6000 feet AGL
Clouds: few clouds at 1800 feet AGL
broken clouds at 6000 feet AGL
Weather: VCSH  (showers in vicinity)

METAR text: EIDW 191730Z 26011KT 9999 VCSH FEW018CB SCT042 15/10 Q1013 NOSIG
Conditions at: EIDW (DUBLIN AIRPORT , IE) observed 1730 UTC 19 August 2019
Temperature: 15.0°C (59°F)
Dewpoint: 10.0°C (50°F) [RH = 72%]
Pressure (altimeter): 29.91 inches Hg (1013.0 mb)
Winds: from the W (260 degrees) at 13 MPH (11 knots; 5.7 m/s)
Visibility: 6 or more miles (10+ km)
Ceiling: at least 12,000 feet AGL
Clouds: few clouds at 1800 feet AGL
scattered clouds at 4200 feet AGL
Weather: VCSH  (showers in vicinity)

METAR text: EIDW 191700Z 27016KT 9999 -SHRA FEW018CB SCT070 15/10 Q1013 NOSIG
Conditions at: EIDW (DUBLIN AIRPORT , IE) observed 1700 UTC 19 August 2019
Temperature: 15.0°C (59°F)
Dewpoint: 10.0°C (50°F) [RH = 72%]
Pressure (altimeter): 29.91 inches Hg (1013.0 mb)
Winds: from the W (270 degrees) at 18 MPH (16 knots; 8.2 m/s)
Visibility: 6 or more miles (10+ km)
Ceiling: at least 12,000 feet AGL
Clouds: few clouds at 1800 feet AGL
scattered clouds at 7000 feet AGL
Weather: -SHRA  (light rain showers)

METAR text: EIDW 191630Z 28014KT 9999 -SHRA FEW018CB SCT032 16/09 Q1013 NOSIG
Conditions at: EIDW (DUBLIN AIRPORT , IE) observed 1630 UTC 19 August 2019
Temperature: 16.0°C (61°F)
Dewpoint: 9.0°C (48°F) [RH = 63%]
Pressure (altimeter): 29.91 inches Hg (1013.0 mb)
Winds: from the W (280 degrees) at 16 MPH (14 knots; 7.2 m/s)
Visibility: 6 or more miles (10+ km)
Ceiling: at least 12,000 feet AGL
Clouds: few clouds at 1800 feet AGL
scattered clouds at 3200 feet AGL
Weather: -SHRA  (light rain showers)

METAR text: EIDW 191600Z 26014KT 230V290 9999 -SHRA FEW018CB SCT033 17/10 Q1012 NOSIG
Conditions at: EIDW (DUBLIN AIRPORT , IE) observed 1600 UTC 19 August 2019
Temperature: 17.0°C (63°F)
Dewpoint: 10.0°C (50°F) [RH = 63%]
Pressure (altimeter): 29.88 inches Hg (1012.0 mb)
Winds: from the W (260 degrees) at 16 MPH (14 knots; 7.2 m/s)
Visibility: 6 or more miles (10+ km)
Ceiling: at least 12,000 feet AGL
Clouds: few clouds at 1800 feet AGL
scattered clouds at 3300 feet AGL
Weather: -SHRA  (light rain showers)

METAR text: EIDW 191530Z 27012KT 9999 -SHRA FEW018CB SCT033 16/10 Q1013 NOSIG
Conditions at: EIDW (DUBLIN AIRPORT , IE) observed 1530 UTC 19 August 2019
Temperature: 16.0°C (61°F)
Dewpoint: 10.0°C (50°F) [RH = 68%]
Pressure (altimeter): 29.91 inches Hg (1013.0 mb)
Winds: from the W (270 degrees) at 14 MPH (12 knots; 6.2 m/s)
Visibility: 6 or more miles (10+ km)
Ceiling: at least 12,000 feet AGL
Clouds: few clouds at 1800 feet AGL
scattered clouds at 3300 feet AGL
Weather: -SHRA  (light rain showers)

METAR text: EIDW 191500Z 28013KT 240V300 9999 -SHRA FEW018CB SCT031 BKN110 16/10 Q1012 NOSIG
Conditions at: EIDW (DUBLIN AIRPORT , IE) observed 1500 UTC 19 August 2019
Temperature: 16.0°C (61°F)
Dewpoint: 10.0°C (50°F) [RH = 68%]
Pressure (altimeter): 29.88 inches Hg (1012.0 mb)
Winds: from the W (280 degrees) at 15 MPH (13 knots; 6.7 m/s)
Visibility: 6 or more miles (10+ km)
Ceiling: 11000 feet AGL
Clouds: few clouds at 1800 feet AGL
scattered clouds at 3100 feet AGL
broken clouds at 11000 feet AGL
Weather: -SHRA  (light rain showers)

METAR text: EIDW 191430Z 26012KT 230V290 9999 VCSH FEW018CB SCT044 16/11 Q1012 NOSIG
Conditions at: EIDW (DUBLIN AIRPORT , IE) observed 1430 UTC 19 August 2019
Temperature: 16.0°C (61°F)
Dewpoint: 11.0°C (52°F) [RH = 72%]
Pressure (altimeter): 29.88 inches Hg (1012.0 mb)
Winds: from the W (260 degrees) at 14 MPH (12 knots; 6.2 m/s)
Visibility: 6 or more miles (10+ km)
Ceiling: at least 12,000 feet AGL
Clouds: few clouds at 1800 feet AGL
scattered clouds at 4400 feet AGL
Weather: VCSH  (showers in vicinity)

METAR text: EIDW 191400Z 26011KT 230V290 9999 VCSH FEW018CB SCT060 16/11 Q1012 NOSIG
Conditions at: EIDW (DUBLIN AIRPORT , IE) observed 1400 UTC 19 August 2019
Temperature: 16.0°C (61°F)
Dewpoint: 11.0°C (52°F) [RH = 72%]
Pressure (altimeter): 29.88 inches Hg (1012.0 mb)
Winds: from the W (260 degrees) at 13 MPH (11 knots; 5.7 m/s)
Visibility: 6 or more miles (10+ km)
Ceiling: at least 12,000 feet AGL
Clouds: few clouds at 1800 feet AGL
scattered clouds at 6000 feet AGL
Weather: VCSH  (showers in vicinity)

METAR text: EIDW 191330Z 27012G22KT 230V300 9999 -SHRA SCT018CB SCT036 BKN047 13/11 Q1012 NOSIG
Conditions at: EIDW (DUBLIN AIRPORT , IE) observed 1330 UTC 19 August 2019
Temperature: 13.0°C (55°F)
Dewpoint: 11.0°C (52°F) [RH = 88%]
Pressure (altimeter): 29.88 inches Hg (1012.0 mb)
Winds: from the W (270 degrees) at 14 MPH (12 knots; 6.2 m/s)
gusting to 25 MPH (22 knots; 11.3 m/s)
Visibility: 6 or more miles (10+ km)
Ceiling: 4700 feet AGL
Clouds: scattered clouds at 1800 feet AGL
scattered clouds at 3600 feet AGL
broken clouds at 4700 feet AGL
Weather: -SHRA  (light rain showers)

METAR text: EIDW 191300Z 31016KT 270V330 6000 -SHRA SCT018CB SCT032 BKN048 14/10 Q1012 NOSIG
Conditions at: EIDW (DUBLIN AIRPORT , IE) observed 1300 UTC 19 August 2019
Temperature: 14.0°C (57°F)
Dewpoint: 10.0°C (50°F) [RH = 77%]
Pressure (altimeter): 29.88 inches Hg (1012.0 mb)
Winds: from the NW (310 degrees) at 18 MPH (16 knots; 8.2 m/s)
Visibility: 4 miles ( 6 km)
Ceiling: 4800 feet AGL
Clouds: scattered clouds at 1800 feet AGL
scattered clouds at 3200 feet AGL
broken clouds at 4800 feet AGL
Weather: -SHRA  (light rain showers)

METAR text: EIDW 191230Z 26010KT 220V290 9999 -SHRA FEW018CB SCT032 BKN046 17/09 Q1011 NOSIG
Conditions at: EIDW (DUBLIN AIRPORT , IE) observed 1230 UTC 19 August 2019
Temperature: 17.0°C (63°F)
Dewpoint: 9.0°C (48°F) [RH = 59%]
Pressure (altimeter): 29.85 inches Hg (1011.0 mb)
Winds: from the W (260 degrees) at 12 MPH (10 knots; 5.1 m/s)
Visibility: 6 or more miles (10+ km)
Ceiling: 4600 feet AGL
Clouds: few clouds at 1800 feet AGL
scattered clouds at 3200 feet AGL
broken clouds at 4600 feet AGL
Weather: -SHRA  (light rain showers)

METAR text: EIDW 191200Z 26012KT 200V290 9999 SCT028 17/09 Q1011 NOSIG
Conditions at: EIDW (DUBLIN AIRPORT , IE) observed 1200 UTC 19 August 2019
Temperature: 17.0°C (63°F)
Dewpoint: 9.0°C (48°F) [RH = 59%]
Pressure (altimeter): 29.85 inches Hg (1011.0 mb)
Winds: from the W (260 degrees) at 14 MPH (12 knots; 6.2 m/s)
Visibility: 6 or more miles (10+ km)
Ceiling: at least 12,000 feet AGL
Clouds: scattered clouds at 2800 feet AGL
Weather: no significant weather observed at this time

METAR text: EIDW 191130Z 25012KT 190V280 9999 SCT028 16/09 Q1011 NOSIG
Conditions at: EIDW (DUBLIN AIRPORT , IE) observed 1130 UTC 19 August 2019
Temperature: 16.0°C (61°F)
Dewpoint: 9.0°C (48°F) [RH = 63%]
Pressure (altimeter): 29.85 inches Hg (1011.0 mb)
Winds: from the WSW (250 degrees) at 14 MPH (12 knots; 6.2 m/s)
Visibility: 6 or more miles (10+ km)
Ceiling: at least 12,000 feet AGL
Clouds: scattered clouds at 2800 feet AGL
Weather: no significant weather observed at this time

METAR text: EIDW 191100Z 25010KT 210V290 9999 SCT028 17/09 Q1011 NOSIG
Conditions at: EIDW (DUBLIN AIRPORT , IE) observed 1100 UTC 19 August 2019
Temperature: 17.0°C (63°F)
Dewpoint: 9.0°C (48°F) [RH = 59%]
Pressure (altimeter): 29.85 inches Hg (1011.0 mb)
Winds: from the WSW (250 degrees) at 12 MPH (10 knots; 5.1 m/s)
Visibility: 6 or more miles (10+ km)
Ceiling: at least 12,000 feet AGL
Clouds: scattered clouds at 2800 feet AGL
Weather: no significant weather observed at this time

METAR text: EIDW 191030Z 28018KT 9999 SCT022 16/09 Q1010 NOSIG
Conditions at: EIDW (DUBLIN AIRPORT , IE) observed 1030 UTC 19 August 2019
Temperature: 16.0°C (61°F)
Dewpoint: 9.0°C (48°F) [RH = 63%]
Pressure (altimeter): 29.82 inches Hg (1010.0 mb)
Winds: from the W (280 degrees) at 21 MPH (18 knots; 9.3 m/s)
Visibility: 6 or more miles (10+ km)
Ceiling: at least 12,000 feet AGL
Clouds: scattered clouds at 2200 feet AGL
Weather: no significant weather observed at this time

METAR text: EIDW 191000Z 26013KT 190V290 9999 SCT022 15/09 Q1010 NOSIG
Conditions at: EIDW (DUBLIN AIRPORT , IE) observed 1000 UTC 19 August 2019
Temperature: 15.0°C (59°F)
Dewpoint: 9.0°C (48°F) [RH = 67%]
Pressure (altimeter): 29.82 inches Hg (1010.0 mb)
Winds: from the W (260 degrees) at 15 MPH (13 knots; 6.7 m/s)
Visibility: 6 or more miles (10+ km)
Ceiling: at least 12,000 feet AGL
Clouds: scattered clouds at 2200 feet AGL
Weather: no significant weather observed at this time

METAR text: EIDW 190930Z 25012G22KT 200V280 9999 FEW022 15/10 Q1010 NOSIG
Conditions at: EIDW (DUBLIN AIRPORT , IE) observed 0930 UTC 19 August 2019
Temperature: 15.0°C (59°F)
Dewpoint: 10.0°C (50°F) [RH = 72%]
Pressure (altimeter): 29.82 inches Hg (1010.0 mb)
Winds: from the WSW (250 degrees) at 14 MPH (12 knots; 6.2 m/s)
gusting to 25 MPH (22 knots; 11.3 m/s)
Visibility: 6 or more miles (10+ km)
Ceiling: at least 12,000 feet AGL
Clouds: few clouds at 2200 feet AGL
Weather: no significant weather observed at this time

METAR text: EIDW 190900Z 26011KT 220V290 9999 SCT017 14/10 Q1010 NOSIG
Conditions at: EIDW (DUBLIN AIRPORT , IE) observed 0900 UTC 19 August 2019
Temperature: 14.0°C (57°F)
Dewpoint: 10.0°C (50°F) [RH = 77%]
Pressure (altimeter): 29.82 inches Hg (1010.0 mb)
Winds: from the W (260 degrees) at 13 MPH (11 knots; 5.7 m/s)
Visibility: 6 or more miles (10+ km)
Ceiling: at least 12,000 feet AGL
Clouds: scattered clouds at 1700 feet AGL
Weather: no significant weather observed at this time

METAR text: EIDW 190830Z 25012KT 210V280 9999 FEW018 13/10 Q1010 NOSIG
Conditions at: EIDW (DUBLIN AIRPORT , IE) observed 0830 UTC 19 August 2019
Temperature: 13.0°C (55°F)
Dewpoint: 10.0°C (50°F) [RH = 82%]
Pressure (altimeter): 29.82 inches Hg (1010.0 mb)
Winds: from the WSW (250 degrees) at 14 MPH (12 knots; 6.2 m/s)
Visibility: 6 or more miles (10+ km)
Ceiling: at least 12,000 feet AGL
Clouds: few clouds at 1800 feet AGL
Weather: no significant weather observed at this time

METAR text: EIDW 190800Z 25011KT 220V290 9999 FEW017 13/10 Q1009 NOSIG
Conditions at: EIDW (DUBLIN AIRPORT , IE) observed 0800 UTC 19 August 2019
Temperature: 13.0°C (55°F)
Dewpoint: 10.0°C (50°F) [RH = 82%]
Pressure (altimeter): 29.79 inches Hg (1009.0 mb)
Winds: from the WSW (250 degrees) at 13 MPH (11 knots; 5.7 m/s)
Visibility: 6 or more miles (10+ km)
Ceiling: at least 12,000 feet AGL
Clouds: few clouds at 1700 feet AGL
Weather: no significant weather observed at this time

METAR text: EIDW 190730Z 26012KT 9999 FEW012 12/10 Q1009 NOSIG
Conditions at: EIDW (DUBLIN AIRPORT , IE) observed 0730 UTC 19 August 2019
Temperature: 12.0°C (54°F)
Dewpoint: 10.0°C (50°F) [RH = 88%]
Pressure (altimeter): 29.79 inches Hg (1009.0 mb)
Winds: from the W (260 degrees) at 14 MPH (12 knots; 6.2 m/s)
Visibility: 6 or more miles (10+ km)
Ceiling: at least 12,000 feet AGL
Clouds: few clouds at 1200 feet AGL
Weather: no significant weather observed at this time

METAR text: EIDW 190700Z 25010KT 220V290 9999 FEW006 12/10 Q1009 NOSIG
Conditions at: EIDW (DUBLIN AIRPORT , IE) observed 0700 UTC 19 August 2019
Temperature: 12.0°C (54°F)
Dewpoint: 10.0°C (50°F) [RH = 88%]
Pressure (altimeter): 29.79 inches Hg (1009.0 mb)
Winds: from the WSW (250 degrees) at 12 MPH (10 knots; 5.1 m/s)
Visibility: 6 or more miles (10+ km)
Ceiling: at least 12,000 feet AGL
Clouds: few clouds at 600 feet AGL
Weather: no significant weather observed at this time

METAR text: EIDW 190630Z 24007KT 200V280 9999 FEW006 11/10 Q1009 NOSIG
Conditions at: EIDW (DUBLIN AIRPORT , IE) observed 0630 UTC 19 August 2019
Temperature: 11.0°C (52°F)
Dewpoint: 10.0°C (50°F) [RH = 94%]
Pressure (altimeter): 29.79 inches Hg (1009.0 mb)
Winds: from the WSW (240 degrees) at 8 MPH (7 knots; 3.6 m/s)
Visibility: 6 or more miles (10+ km)
Ceiling: at least 12,000 feet AGL
Clouds: few clouds at 600 feet AGL
Weather: no significant weather observed at this time

METAR text: EIDW 190600Z 25009KT 210V280 9999 FEW009 11/10 Q1009 NOSIG
Conditions at: EIDW (DUBLIN AIRPORT , IE) observed 0600 UTC 19 August 2019
Temperature: 11.0°C (52°F)
Dewpoint: 10.0°C (50°F) [RH = 94%]
Pressure (altimeter): 29.79 inches Hg (1009.0 mb)
Winds: from the WSW (250 degrees) at 10 MPH (9 knots; 4.6 m/s)
Visibility: 6 or more miles (10+ km)
Ceiling: at least 12,000 feet AGL
Clouds: few clouds at 900 feet AGL
Weather: no significant weather observed at this time

METAR text: EIDW 190530Z 24008KT 200V280 9999 FEW010 BKN120 11/10 Q1008 NOSIG
Conditions at: EIDW (DUBLIN AIRPORT , IE) observed 0530 UTC 19 August 2019
Temperature: 11.0°C (52°F)
Dewpoint: 10.0°C (50°F) [RH = 94%]
Pressure (altimeter): 29.76 inches Hg (1008.0 mb)
Winds: from the WSW (240 degrees) at 9 MPH (8 knots; 4.1 m/s)
Visibility: 6 or more miles (10+ km)
Ceiling: 12000 feet AGL
Clouds: few clouds at 1000 feet AGL
broken clouds at 12000 feet AGL
Weather: no significant weather observed at this time

METAR text: EIDW 190500Z 24007KT 200V280 9999 FEW010 BKN120 11/10 Q1008 NOSIG
Conditions at: EIDW (DUBLIN AIRPORT , IE) observed 0500 UTC 19 August 2019
Temperature: 11.0°C (52°F)
Dewpoint: 10.0°C (50°F) [RH = 94%]
Pressure (altimeter): 29.76 inches Hg (1008.0 mb)
Winds: from the WSW (240 degrees) at 8 MPH (7 knots; 3.6 m/s)
Visibility: 6 or more miles (10+ km)
Ceiling: 12000 feet AGL
Clouds: few clouds at 1000 feet AGL
broken clouds at 12000 feet AGL
Weather: no significant weather observed at this time

METAR text: EIDW 190430Z 24008KT 190V280 CAVOK 11/10 Q1008 NOSIG
Conditions at: EIDW (DUBLIN AIRPORT , IE) observed 0430 UTC 19 August 2019
Temperature: 11.0°C (52°F)
Dewpoint: 10.0°C (50°F) [RH = 94%]
Pressure (altimeter): 29.76 inches Hg (1008.0 mb)
Winds: from the WSW (240 degrees) at 9 MPH (8 knots; 4.1 m/s)
Visibility: 6 or more miles (10+ km)
Ceiling: ceiling and visibility are OK
Clouds: unknown
Weather: no significant weather observed at this time

METAR text: EIDW 190400Z 24007KT 190V290 CAVOK 11/10 Q1008 NOSIG
Conditions at: EIDW (DUBLIN AIRPORT , IE) observed 0400 UTC 19 August 2019
Temperature: 11.0°C (52°F)
Dewpoint: 10.0°C (50°F) [RH = 94%]
Pressure (altimeter): 29.76 inches Hg (1008.0 mb)
Winds: from the WSW (240 degrees) at 8 MPH (7 knots; 3.6 m/s)
Visibility: 6 or more miles (10+ km)
Ceiling: ceiling and visibility are OK
Clouds: unknown
Weather: no significant weather observed at this time

METAR text: EIDW 190330Z 23007KT 170V280 CAVOK 11/10 Q1008 NOSIG
Conditions at: EIDW (DUBLIN AIRPORT , IE) observed 0330 UTC 19 August 2019
Temperature: 11.0°C (52°F)
Dewpoint: 10.0°C (50°F) [RH = 94%]
Pressure (altimeter): 29.76 inches Hg (1008.0 mb)
Winds: from the SW (230 degrees) at 8 MPH (7 knots; 3.6 m/s)
Visibility: 6 or more miles (10+ km)
Ceiling: ceiling and visibility are OK
Clouds: unknown
Weather: no significant weather observed at this time

METAR text: EIDW 190300Z 23006KT 190V280 CAVOK 11/10 Q1008 NOSIG
Conditions at: EIDW (DUBLIN AIRPORT , IE) observed 0300 UTC 19 August 2019
Temperature: 11.0°C (52°F)
Dewpoint: 10.0°C (50°F) [RH = 94%]
Pressure (altimeter): 29.76 inches Hg (1008.0 mb)
Winds: from the SW (230 degrees) at 7 MPH (6 knots; 3.1 m/s)
Visibility: 6 or more miles (10+ km)
Ceiling: ceiling and visibility are OK
Clouds: unknown
Weather: no significant weather observed at this time

METAR text: EIDW 190230Z 22006KT 180V250 CAVOK 11/10 Q1007 NOSIG
Conditions at: EIDW (DUBLIN AIRPORT , IE) observed 0230 UTC 19 August 2019
Temperature: 11.0°C (52°F)
Dewpoint: 10.0°C (50°F) [RH = 94%]
Pressure (altimeter): 29.73 inches Hg (1007.0 mb)
Winds: from the SW (220 degrees) at 7 MPH (6 knots; 3.1 m/s)
Visibility: 6 or more miles (10+ km)
Ceiling: ceiling and visibility are OK
Clouds: unknown
Weather: no significant weather observed at this time

METAR text: EIDW 190200Z 24004KT 170V290 CAVOK 11/09 Q1007 NOSIG
Conditions at: EIDW (DUBLIN AIRPORT , IE) observed 0200 UTC 19 August 2019
Temperature: 11.0°C (52°F)
Dewpoint: 9.0°C (48°F) [RH = 87%]
Pressure (altimeter): 29.73 inches Hg (1007.0 mb)
Winds: from the WSW (240 degrees) at 5 MPH (4 knots; 2.1 m/s)
Visibility: 6 or more miles (10+ km)
Ceiling: ceiling and visibility are OK
Clouds: unknown
Weather: no significant weather observed at this time

METAR text: EIDW 190130Z 26009KT 230V290 CAVOK 11/10 Q1007 NOSIG
Conditions at: EIDW (DUBLIN AIRPORT , IE) observed 0130 UTC 19 August 2019
Temperature: 11.0°C (52°F)
Dewpoint: 10.0°C (50°F) [RH = 94%]
Pressure (altimeter): 29.73 inches Hg (1007.0 mb)
Winds: from the W (260 degrees) at 10 MPH (9 knots; 4.6 m/s)
Visibility: 6 or more miles (10+ km)
Ceiling: ceiling and visibility are OK
Clouds: unknown
Weather: no significant weather observed at this time

METAR text: EIDW 190100Z 26009KT 230V290 CAVOK 11/10 Q1007 NOSIG
Conditions at: EIDW (DUBLIN AIRPORT , IE) observed 0100 UTC 19 August 2019
Temperature: 11.0°C (52°F)
Dewpoint: 10.0°C (50°F) [RH = 94%]
Pressure (altimeter): 29.73 inches Hg (1007.0 mb)
Winds: from the W (260 degrees) at 10 MPH (9 knots; 4.6 m/s)
Visibility: 6 or more miles (10+ km)
Ceiling: ceiling and visibility are OK
Clouds: unknown
Weather: no significant weather observed at this time

METAR text: EIDW 190030Z 26008KT 190V290 9999 FEW020 BKN220 11/10 Q1007 NOSIG
Conditions at: EIDW (DUBLIN AIRPORT , IE) observed 0030 UTC 19 August 2019
Temperature: 11.0°C (52°F)
Dewpoint: 10.0°C (50°F) [RH = 94%]
Pressure (altimeter): 29.73 inches Hg (1007.0 mb)
Winds: from the W (260 degrees) at 9 MPH (8 knots; 4.1 m/s)
Visibility: 6 or more miles (10+ km)
Ceiling: 22000 feet AGL
Clouds: few clouds at 2000 feet AGL
broken clouds at 22000 feet AGL
Weather: no significant weather observed at this time

METAR text: EIDW 190000Z 26010KT 9999 FEW022 SCT200 12/10 Q1007 NOSIG
Conditions at: EIDW (DUBLIN AIRPORT , IE) observed 0000 UTC 19 August 2019
Temperature: 12.0°C (54°F)
Dewpoint: 10.0°C (50°F) [RH = 88%]
Pressure (altimeter): 29.73 inches Hg (1007.0 mb)
Winds: from the W (260 degrees) at 12 MPH (10 knots; 5.1 m/s)
Visibility: 6 or more miles (10+ km)
Ceiling: at least 12,000 feet AGL
Clouds: few clouds at 2200 feet AGL
scattered clouds at 20000 feet AGL
Weather: no significant weather observed at this time

METAR text: EIDW 182330Z 26009KT 230V290 9999 FEW022 12/10 Q1006 NOSIG
Conditions at: EIDW (DUBLIN AIRPORT , IE) observed 2330 UTC 18 August 2019
Temperature: 12.0°C (54°F)
Dewpoint: 10.0°C (50°F) [RH = 88%]
Pressure (altimeter): 29.70 inches Hg (1006.0 mb)
Winds: from the W (260 degrees) at 10 MPH (9 knots; 4.6 m/s)
Visibility: 6 or more miles (10+ km)
Ceiling: at least 12,000 feet AGL
Clouds: few clouds at 2200 feet AGL
Weather: no significant weather observed at this time

METAR text: EIDW 182300Z 26009KT 220V300 9999 FEW022 12/10 Q1006 NOSIG
Conditions at: EIDW (DUBLIN AIRPORT , IE) observed 2300 UTC 18 August 2019
Temperature: 12.0°C (54°F)
Dewpoint: 10.0°C (50°F) [RH = 88%]
Pressure (altimeter): 29.70 inches Hg (1006.0 mb)
Winds: from the W (260 degrees) at 10 MPH (9 knots; 4.6 m/s)
Visibility: 6 or more miles (10+ km)
Ceiling: at least 12,000 feet AGL
Clouds: few clouds at 2200 feet AGL
Weather: no significant weather observed at this time

METAR text: EIDW 182230Z 26009KT 9999 FEW022 SCT180 12/10 Q1005 NOSIG
Conditions at: EIDW (DUBLIN AIRPORT , IE) observed 2230 UTC 18 August 2019
Temperature: 12.0°C (54°F)
Dewpoint: 10.0°C (50°F) [RH = 88%]
Pressure (altimeter): 29.68 inches Hg (1005.0 mb)
Winds: from the W (260 degrees) at 10 MPH (9 knots; 4.6 m/s)
Visibility: 6 or more miles (10+ km)
Ceiling: at least 12,000 feet AGL
Clouds: few clouds at 2200 feet AGL
scattered clouds at 18000 feet AGL
Weather: no significant weather observed at this time

METAR text: EIDW 182200Z 26009KT 9999 FEW022 SCT180 13/11 Q1005 NOSIG
Conditions at: EIDW (DUBLIN AIRPORT , IE) observed 2200 UTC 18 August 2019
Temperature: 13.0°C (55°F)
Dewpoint: 11.0°C (52°F) [RH = 88%]
Pressure (altimeter): 29.68 inches Hg (1005.0 mb)
Winds: from the W (260 degrees) at 10 MPH (9 knots; 4.6 m/s)
Visibility: 6 or more miles (10+ km)
Ceiling: at least 12,000 feet AGL
Clouds: few clouds at 2200 feet AGL
scattered clouds at 18000 feet AGL
Weather: no significant weather observed at this time

METAR text: EIDW 182130Z 26007KT 210V300 9999 FEW022 13/11 Q1005 NOSIG
Conditions at: EIDW (DUBLIN AIRPORT , IE) observed 2130 UTC 18 August 2019
Temperature: 13.0°C (55°F)
Dewpoint: 11.0°C (52°F) [RH = 88%]
Pressure (altimeter): 29.68 inches Hg (1005.0 mb)
Winds: from the W (260 degrees) at 8 MPH (7 knots; 3.6 m/s)
Visibility: 6 or more miles (10+ km)
Ceiling: at least 12,000 feet AGL
Clouds: few clouds at 2200 feet AGL
Weather: no significant weather observed at this time

METAR text: EIDW 182100Z 26011KT 240V300 9999 FEW022 SCT240 13/11 Q1004 NOSIG
Conditions at: EIDW (DUBLIN AIRPORT , IE) observed 2100 UTC 18 August 2019
Temperature: 13.0°C (55°F)
Dewpoint: 11.0°C (52°F) [RH = 88%]
Pressure (altimeter): 29.65 inches Hg (1004.0 mb)
Winds: from the W (260 degrees) at 13 MPH (11 knots; 5.7 m/s)
Visibility: 6 or more miles (10+ km)
Ceiling: at least 12,000 feet AGL
Clouds: few clouds at 2200 feet AGL
scattered clouds at 24000 feet AGL
Weather: no significant weather observed at this time

METAR text: EIDW 182030Z 26010KT 230V290 9999 VCSH FEW020CB SCT180 13/11 Q1004 NOSIG
Conditions at: EIDW (DUBLIN AIRPORT , IE) observed 2030 UTC 18 August 2019
Temperature: 13.0°C (55°F)
Dewpoint: 11.0°C (52°F) [RH = 88%]
Pressure (altimeter): 29.65 inches Hg (1004.0 mb)
Winds: from the W (260 degrees) at 12 MPH (10 knots; 5.1 m/s)
Visibility: 6 or more miles (10+ km)
Ceiling: at least 12,000 feet AGL
Clouds: few clouds at 2000 feet AGL
scattered clouds at 18000 feet AGL
Weather: VCSH  (showers in vicinity)

METAR text: EIDW 182000Z 27011KT 240V300 9999 -SHRA SCT022CB SCT060 14/11 Q1003 NOSIG
Conditions at: EIDW (DUBLIN AIRPORT , IE) observed 2000 UTC 18 August 2019
Temperature: 14.0°C (57°F)
Dewpoint: 11.0°C (52°F) [RH = 82%]
Pressure (altimeter): 29.62 inches Hg (1003.0 mb)
Winds: from the W (270 degrees) at 13 MPH (11 knots; 5.7 m/s)
Visibility: 6 or more miles (10+ km)
Ceiling: at least 12,000 feet AGL
Clouds: scattered clouds at 2200 feet AGL
scattered clouds at 6000 feet AGL
Weather: -SHRA  (light rain showers)

METAR text: EIDW 181930Z 26010KT 9999 FEW022CB SCT060 14/10 Q1003 NOSIG
Conditions at: EIDW (DUBLIN AIRPORT , IE) observed 1930 UTC 18 August 2019
Temperature: 14.0°C (57°F)
Dewpoint: 10.0°C (50°F) [RH = 77%]
Pressure (altimeter): 29.62 inches Hg (1003.0 mb)
Winds: from the W (260 degrees) at 12 MPH (10 knots; 5.1 m/s)
Visibility: 6 or more miles (10+ km)
Ceiling: at least 12,000 feet AGL
Clouds: few clouds at 2200 feet AGL
scattered clouds at 6000 feet AGL
Weather: no significant weather observed at this time

METAR text: EIDW 181900Z 27011KT 9999 FEW022 SCT060 16/10 Q1002 NOSIG
Conditions at: EIDW (DUBLIN AIRPORT , IE) observed 1900 UTC 18 August 2019
Temperature: 16.0°C (61°F)
Dewpoint: 10.0°C (50°F) [RH = 68%]
Pressure (altimeter): 29.59 inches Hg (1002.0 mb)
Winds: from the W (270 degrees) at 13 MPH (11 knots; 5.7 m/s)
Visibility: 6 or more miles (10+ km)
Ceiling: at least 12,000 feet AGL
Clouds: few clouds at 2200 feet AGL
scattered clouds at 6000 feet AGL
Weather: no significant weather observed at this time

METAR text: EIDW 181830Z 26010KT 230V290 9999 FEW022 SCT040 16/09 Q1002 NOSIG
Conditions at: EIDW (DUBLIN AIRPORT , IE) observed 1830 UTC 18 August 2019
Temperature: 16.0°C (61°F)
Dewpoint: 9.0°C (48°F) [RH = 63%]
Pressure (altimeter): 29.59 inches Hg (1002.0 mb)
Winds: from the W (260 degrees) at 12 MPH (10 knots; 5.1 m/s)
Visibility: 6 or more miles (10+ km)
Ceiling: at least 12,000 feet AGL
Clouds: few clouds at 2200 feet AGL
scattered clouds at 4000 feet AGL
Weather: no significant weather observed at this time

METAR text: EIDW 181800Z 24008KT 190V280 9999 SCT022CB 17/11 Q1002 NOSIG
Conditions at: EIDW (DUBLIN AIRPORT , IE) observed 1800 UTC 18 August 2019
Temperature: 17.0°C (63°F)
Dewpoint: 11.0°C (52°F) [RH = 68%]
Pressure (altimeter): 29.59 inches Hg (1002.0 mb)
Winds: from the WSW (240 degrees) at 9 MPH (8 knots; 4.1 m/s)
Visibility: 6 or more miles (10+ km)
Ceiling: at least 12,000 feet AGL
Clouds: scattered clouds at 2200 feet AGL
Weather: no significant weather observed at this time

METAR text: EIDW 181730Z 24010KT 200V280 9999 SCT022CB 17/11 Q1001 NOSIG
Conditions at: EIDW (DUBLIN AIRPORT , IE) observed 1730 UTC 18 August 2019
Temperature: 17.0°C (63°F)
Dewpoint: 11.0°C (52°F) [RH = 68%]
Pressure (altimeter): 29.56 inches Hg (1001.0 mb)
Winds: from the WSW (240 degrees) at 12 MPH (10 knots; 5.1 m/s)
Visibility: 6 or more miles (10+ km)
Ceiling: at least 12,000 feet AGL
Clouds: scattered clouds at 2200 feet AGL
Weather: no significant weather observed at this time

METAR text: EIDW 181700Z 24010KT 170V280 9999 FEW018CB SCT070 17/11 Q1001 NOSIG
Conditions at: EIDW (DUBLIN AIRPORT , IE) observed 1700 UTC 18 August 2019
Temperature: 17.0°C (63°F)
Dewpoint: 11.0°C (52°F) [RH = 68%]
Pressure (altimeter): 29.56 inches Hg (1001.0 mb)
Winds: from the WSW (240 degrees) at 12 MPH (10 knots; 5.1 m/s)
Visibility: 6 or more miles (10+ km)
Ceiling: at least 12,000 feet AGL
Clouds: few clouds at 1800 feet AGL
scattered clouds at 7000 feet AGL
Weather: no significant weather observed at this time

METAR text: EIDW 181630Z 24011KT 200V280 9999 FEW018CB SCT070 16/12 Q1001 NOSIG
Conditions at: EIDW (DUBLIN AIRPORT , IE) observed 1630 UTC 18 August 2019
Temperature: 16.0°C (61°F)
Dewpoint: 12.0°C (54°F) [RH = 77%]
Pressure (altimeter): 29.56 inches Hg (1001.0 mb)
Winds: from the WSW (240 degrees) at 13 MPH (11 knots; 5.7 m/s)
Visibility: 6 or more miles (10+ km)
Ceiling: at least 12,000 feet AGL
Clouds: few clouds at 1800 feet AGL
scattered clouds at 7000 feet AGL
Weather: no significant weather observed at this time

METAR text: EIDW 181600Z 23008KT 180V260 9999 FEW018CB SCT035 BKN070 15/12 Q1000 RESHRA TEMPO 4000
Conditions at: EIDW (DUBLIN AIRPORT , IE) observed 1600 UTC 18 August 2019
Temperature: 15.0°C (59°F)
Dewpoint: 12.0°C (54°F) [RH = 82%]
Pressure (altimeter): 29.53 inches Hg (1000.0 mb)
Winds: from the SW (230 degrees) at 9 MPH (8 knots; 4.1 m/s)
Visibility: 6 or more miles (10+ km)
Ceiling: 7000 feet AGL
Clouds: few clouds at 1800 feet AGL
scattered clouds at 3500 feet AGL
broken clouds at 7000 feet AGL
Weather: no significant weather observed at this time

METAR text: EIDW 181530Z 23011KT 190V270 9999 FEW018CB SCT035 BKN070 14/12 Q1001 RESHRA TEMPO 4000
Conditions at: EIDW (DUBLIN AIRPORT , IE) observed 1530 UTC 18 August 2019
Temperature: 14.0°C (57°F)
Dewpoint: 12.0°C (54°F) [RH = 88%]
Pressure (altimeter): 29.56 inches Hg (1001.0 mb)
Winds: from the SW (230 degrees) at 13 MPH (11 knots; 5.7 m/s)
Visibility: 6 or more miles (10+ km)
Ceiling: 7000 feet AGL
Clouds: few clouds at 1800 feet AGL
scattered clouds at 3500 feet AGL
broken clouds at 7000 feet AGL
Weather: no significant weather observed at this time

METAR text: EIDW 181500Z 25010G21KT 200V290 9999 -SHRA FEW018CB SCT035 BKN070 15/11 Q1000 TEMPO 4000
Conditions at: EIDW (DUBLIN AIRPORT , IE) observed 1500 UTC 18 August 2019
Temperature: 15.0°C (59°F)
Dewpoint: 11.0°C (52°F) [RH = 77%]
Pressure (altimeter): 29.53 inches Hg (1000.0 mb)
Winds: from the WSW (250 degrees) at 12 MPH (10 knots; 5.1 m/s)
gusting to 24 MPH (21 knots; 10.8 m/s)
Visibility: 6 or more miles (10+ km)
Ceiling: 7000 feet AGL
Clouds: few clouds at 1800 feet AGL
scattered clouds at 3500 feet AGL
broken clouds at 7000 feet AGL
Weather: -SHRA  (light rain showers)

METAR text: EIDW 181430Z 25016G28KT 190V280 9999 -SHRA FEW018CB BKN040 18/12 Q1000 TEMPO 4000
Conditions at: EIDW (DUBLIN AIRPORT , IE) observed 1430 UTC 18 August 2019
Temperature: 18.0°C (64°F)
Dewpoint: 12.0°C (54°F) [RH = 68%]
Pressure (altimeter): 29.53 inches Hg (1000.0 mb)
Winds: from the WSW (250 degrees) at 18 MPH (16 knots; 8.2 m/s)
gusting to 32 MPH (28 knots; 14.4 m/s)
Visibility: 6 or more miles (10+ km)
Ceiling: 4000 feet AGL
Clouds: few clouds at 1800 feet AGL
broken clouds at 4000 feet AGL
Weather: -SHRA  (light rain showers)

METAR text: EIDW 181400Z 24013KT 190V300 9999 FEW018CB SCT045 17/12 Q1000 NOSIG
Conditions at: EIDW (DUBLIN AIRPORT , IE) observed 1400 UTC 18 August 2019
Temperature: 17.0°C (63°F)
Dewpoint: 12.0°C (54°F) [RH = 72%]
Pressure (altimeter): 29.53 inches Hg (1000.0 mb)
Winds: from the WSW (240 degrees) at 15 MPH (13 knots; 6.7 m/s)
Visibility: 6 or more miles (10+ km)
Ceiling: at least 12,000 feet AGL
Clouds: few clouds at 1800 feet AGL
scattered clouds at 4500 feet AGL
Weather: no significant weather observed at this time

METAR text: EIDW 181330Z 25012KT 200V290 9999 FEW018CB SCT045 16/12 Q0999 NOSIG
Conditions at: EIDW (DUBLIN AIRPORT , IE) observed 1330 UTC 18 August 2019
Temperature: 16.0°C (61°F)
Dewpoint: 12.0°C (54°F) [RH = 77%]
Pressure (altimeter): 29.50 inches Hg (999.0 mb)
Winds: from the WSW (250 degrees) at 14 MPH (12 knots; 6.2 m/s)
Visibility: 6 or more miles (10+ km)
Ceiling: at least 12,000 feet AGL
Clouds: few clouds at 1800 feet AGL
scattered clouds at 4500 feet AGL
Weather: no significant weather observed at this time

METAR text: EIDW 181300Z 24011G23KT 200V290 9999 -SHRA FEW018CB SCT037 BKN070 16/12 Q0999 WS RWY28 NOSIG
Conditions at: EIDW (DUBLIN AIRPORT , IE) observed 1300 UTC 18 August 2019
Temperature: 16.0°C (61°F)
Dewpoint: 12.0°C (54°F) [RH = 77%]
Pressure (altimeter): 29.50 inches Hg (999.0 mb)
Winds: from the WSW (240 degrees) at 13 MPH (11 knots; 5.7 m/s)
gusting to 26 MPH (23 knots; 11.8 m/s)
Visibility: 6 or more miles (10+ km)
Ceiling: 7000 feet AGL
Clouds: few clouds at 1800 feet AGL
scattered clouds at 3700 feet AGL
broken clouds at 7000 feet AGL
Weather: -SHRA  (light rain showers)

METAR text: EIDW 181230Z 24011G23KT 200V290 9999 VCSH FEW018CB SCT021 BKN150 18/11 Q0999 WS RWY28 NOSIG
Conditions at: EIDW (DUBLIN AIRPORT , IE) observed 1230 UTC 18 August 2019
Temperature: 18.0°C (64°F)
Dewpoint: 11.0°C (52°F) [RH = 64%]
Pressure (altimeter): 29.50 inches Hg (999.0 mb)
Winds: from the WSW (240 degrees) at 13 MPH (11 knots; 5.7 m/s)
gusting to 26 MPH (23 knots; 11.8 m/s)
Visibility: 6 or more miles (10+ km)
Ceiling: 15000 feet AGL
Clouds: few clouds at 1800 feet AGL
scattered clouds at 2100 feet AGL
broken clouds at 15000 feet AGL
Weather: VCSH  (showers in vicinity)

METAR text: EIDW 181200Z 24012G22KT 190V280 9999 VCSH FEW018CB SCT032 BKN047 17/12 Q0999 WS RWY28 NOSIG
Conditions at: EIDW (DUBLIN AIRPORT , IE) observed 1200 UTC 18 August 2019
Temperature: 17.0°C (63°F)
Dewpoint: 12.0°C (54°F) [RH = 72%]
Pressure (altimeter): 29.50 inches Hg (999.0 mb)
Winds: from the WSW (240 degrees) at 14 MPH (12 knots; 6.2 m/s)
gusting to 25 MPH (22 knots; 11.3 m/s)
Visibility: 6 or more miles (10+ km)
Ceiling: 4700 feet AGL
Clouds: few clouds at 1800 feet AGL
scattered clouds at 3200 feet AGL
broken clouds at 4700 feet AGL
Weather: VCSH  (showers in vicinity)

METAR text: EIDW 181130Z 25013G23KT 180V290 7000 -SHRA FEW014 SCT016CB BKN028 15/12 Q0999 NOSIG
Conditions at: EIDW (DUBLIN AIRPORT , IE) observed 1130 UTC 18 August 2019
Temperature: 15.0°C (59°F)
Dewpoint: 12.0°C (54°F) [RH = 82%]
Pressure (altimeter): 29.50 inches Hg (999.0 mb)
Winds: from the WSW (250 degrees) at 15 MPH (13 knots; 6.7 m/s)
gusting to 26 MPH (23 knots; 11.8 m/s)
Visibility: 4 miles ( 7 km)
Ceiling: 2800 feet AGL
Clouds: few clouds at 1400 feet AGL
scattered clouds at 1600 feet AGL
broken clouds at 2800 feet AGL
Weather: -SHRA  (light rain showers)

METAR text: EIDW 181100Z 24013G27KT 200V290 4000 -SHRA SCT016CB SCT027 BKN060 15/11 Q0999 NOSIG
Conditions at: EIDW (DUBLIN AIRPORT , IE) observed 1100 UTC 18 August 2019
Temperature: 15.0°C (59°F)
Dewpoint: 11.0°C (52°F) [RH = 77%]
Pressure (altimeter): 29.50 inches Hg (999.0 mb)
Winds: from the WSW (240 degrees) at 15 MPH (13 knots; 6.7 m/s)
gusting to 31 MPH (27 knots; 13.9 m/s)
Visibility: 2.49 miles (4.01 km)
Ceiling: 6000 feet AGL
Clouds: scattered clouds at 1600 feet AGL
scattered clouds at 2700 feet AGL
broken clouds at 6000 feet AGL
Weather: -SHRA  (light rain showers)

METAR text: EIDW 181030Z 24012G24KT 190V280 9999 -SHRA FEW018CB SCT022 BKN025 14/11 Q0999 NOSIG
Conditions at: EIDW (DUBLIN AIRPORT , IE) observed 1030 UTC 18 August 2019
Temperature: 14.0°C (57°F)
Dewpoint: 11.0°C (52°F) [RH = 82%]
Pressure (altimeter): 29.50 inches Hg (999.0 mb)
Winds: from the WSW (240 degrees) at 14 MPH (12 knots; 6.2 m/s)
gusting to 28 MPH (24 knots; 12.3 m/s)
Visibility: 6 or more miles (10+ km)
Ceiling: 2500 feet AGL
Clouds: few clouds at 1800 feet AGL
scattered clouds at 2200 feet AGL
broken clouds at 2500 feet AGL
Weather: -SHRA  (light rain showers)

METAR text: EIDW 181000Z 24014G26KT 200V280 9999 VCSH FEW018CB SCT025 BKN037 15/10 Q0998 NOSIG
Conditions at: EIDW (DUBLIN AIRPORT , IE) observed 1000 UTC 18 August 2019
Temperature: 15.0°C (59°F)
Dewpoint: 10.0°C (50°F) [RH = 72%]
Pressure (altimeter): 29.47 inches Hg (998.0 mb)
Winds: from the WSW (240 degrees) at 16 MPH (14 knots; 7.2 m/s)
gusting to 30 MPH (26 knots; 13.4 m/s)
Visibility: 6 or more miles (10+ km)
Ceiling: 3700 feet AGL
Clouds: few clouds at 1800 feet AGL
scattered clouds at 2500 feet AGL
broken clouds at 3700 feet AGL
Weather: VCSH  (showers in vicinity)

METAR text: EIDW 180930Z 24013KT 170V280 9999 -SHRA FEW018CB SCT028 BKN049 15/10 Q0998 NOSIG
Conditions at: EIDW (DUBLIN AIRPORT , IE) observed 0930 UTC 18 August 2019
Temperature: 15.0°C (59°F)
Dewpoint: 10.0°C (50°F) [RH = 72%]
Pressure (altimeter): 29.47 inches Hg (998.0 mb)
Winds: from the WSW (240 degrees) at 15 MPH (13 knots; 6.7 m/s)
Visibility: 6 or more miles (10+ km)
Ceiling: 4900 feet AGL
Clouds: few clouds at 1800 feet AGL
scattered clouds at 2800 feet AGL
broken clouds at 4900 feet AGL
Weather: -SHRA  (light rain showers)

METAR text: EIDW 180900Z 24014G24KT 210V290 9999 FEW017 SCT024 14/09 Q0997 NOSIG
Conditions at: EIDW (DUBLIN AIRPORT , IE) observed 0900 UTC 18 August 2019
Temperature: 14.0°C (57°F)
Dewpoint: 9.0°C (48°F) [RH = 72%]
Pressure (altimeter): 29.44 inches Hg (997.0 mb)
Winds: from the WSW (240 degrees) at 16 MPH (14 knots; 7.2 m/s)
gusting to 28 MPH (24 knots; 12.3 m/s)
Visibility: 6 or more miles (10+ km)
Ceiling: at least 12,000 feet AGL
Clouds: few clouds at 1700 feet AGL
scattered clouds at 2400 feet AGL
Weather: no significant weather observed at this time

METAR text: EIDW 180830Z 24012G26KT 210V280 9999 FEW014 SCT150 13/09 Q0997 NOSIG
Conditions at: EIDW (DUBLIN AIRPORT , IE) observed 0830 UTC 18 August 2019
Temperature: 13.0°C (55°F)
Dewpoint: 9.0°C (48°F) [RH = 77%]
Pressure (altimeter): 29.44 inches Hg (997.0 mb)
Winds: from the WSW (240 degrees) at 14 MPH (12 knots; 6.2 m/s)
gusting to 30 MPH (26 knots; 13.4 m/s)
Visibility: 6 or more miles (10+ km)
Ceiling: at least 12,000 feet AGL
Clouds: few clouds at 1400 feet AGL
scattered clouds at 15000 feet AGL
Weather: no significant weather observed at this time

METAR text: EIDW 180800Z 23011G21KT 200V290 9999 FEW014 SCT130 12/09 Q0997 NOSIG
Conditions at: EIDW (DUBLIN AIRPORT , IE) observed 0800 UTC 18 August 2019
Temperature: 12.0°C (54°F)
Dewpoint: 9.0°C (48°F) [RH = 82%]
Pressure (altimeter): 29.44 inches Hg (997.0 mb)
Winds: from the SW (230 degrees) at 13 MPH (11 knots; 5.7 m/s)
gusting to 24 MPH (21 knots; 10.8 m/s)
Visibility: 6 or more miles (10+ km)
Ceiling: at least 12,000 feet AGL
Clouds: few clouds at 1400 feet AGL
scattered clouds at 13000 feet AGL
Weather: no significant weather observed at this time

METAR text: EIDW 180730Z 24013G23KT 200V280 9999 FEW014 SCT110 BKN150 12/09 Q0997 NOSIG
Conditions at: EIDW (DUBLIN AIRPORT , IE) observed 0730 UTC 18 August 2019
Temperature: 12.0°C (54°F)
Dewpoint: 9.0°C (48°F) [RH = 82%]
Pressure (altimeter): 29.44 inches Hg (997.0 mb)
Winds: from the WSW (240 degrees) at 15 MPH (13 knots; 6.7 m/s)
gusting to 26 MPH (23 knots; 11.8 m/s)
Visibility: 6 or more miles (10+ km)
Ceiling: 15000 feet AGL
Clouds: few clouds at 1400 feet AGL
scattered clouds at 11000 feet AGL
broken clouds at 15000 feet AGL
Weather: no significant weather observed at this time

METAR text: EIDW 180700Z 23013G25KT 200V280 9999 FEW015 SCT120 BKN140 12/09 Q0997 NOSIG
Conditions at: EIDW (DUBLIN AIRPORT , IE) observed 0700 UTC 18 August 2019
Temperature: 12.0°C (54°F)
Dewpoint: 9.0°C (48°F) [RH = 82%]
Pressure (altimeter): 29.44 inches Hg (997.0 mb)
Winds: from the SW (230 degrees) at 15 MPH (13 knots; 6.7 m/s)
gusting to 29 MPH (25 knots; 12.9 m/s)
Visibility: 6 or more miles (10+ km)
Ceiling: 14000 feet AGL
Clouds: few clouds at 1500 feet AGL
scattered clouds at 12000 feet AGL
broken clouds at 14000 feet AGL
Weather: no significant weather observed at this time

METAR text: EIDW 180630Z 24012G22KT 190V270 9999 FEW015 SCT140 BKN200 12/09 Q0997 NOSIG
Conditions at: EIDW (DUBLIN AIRPORT , IE) observed 0630 UTC 18 August 2019
Temperature: 12.0°C (54°F)
Dewpoint: 9.0°C (48°F) [RH = 82%]
Pressure (altimeter): 29.44 inches Hg (997.0 mb)
Winds: from the WSW (240 degrees) at 14 MPH (12 knots; 6.2 m/s)
gusting to 25 MPH (22 knots; 11.3 m/s)
Visibility: 6 or more miles (10+ km)
Ceiling: 20000 feet AGL
Clouds: few clouds at 1500 feet AGL
scattered clouds at 14000 feet AGL
broken clouds at 20000 feet AGL
Weather: no significant weather observed at this time

Forecast for: EIDW (DUBLIN AIRPORT , IE)
Text: TAF EIDW 191700Z 1918/2018 26013KT 9999 FEW020
Forecast period: 1800 UTC 19 August 2019 to 0600 UTC 20 August 2019
Forecast type: FROM: standard forecast or significant change
Winds: from the W (260 degrees) at 15 MPH (13 knots; 6.7 m/s)
Visibility: 6 or more miles 10+ km)
Ceiling: at least 12,000 feet AGL
Clouds: few clouds at 2000 feet AGL
Weather: no significant weather forecast for this period
Text: TEMPO 1918/1920 -SHRA FEW018CB
Forecast period: 1800 to 2000 UTC 19 August 2019
Forecast type: TEMPORARY: The following changes expected for less than half the time period
Visibility: missing
Ceiling: at least 12,000 feet AGL
Clouds: few clouds at 1800 feet AGL
Weather: -SHRA  (light rain showers)
Text: PROB30
Forecast period: 0100 to 0600 UTC 20 August 2019
Forecast type: TEMPORARY: The following changes expected for less than half the time period
Visibility: 2.49 miles (4.01 km)
Ceiling: unknown
Clouds: missing
Weather: BR  (mist)
Text: TEMPO 2001/2006 4000 BR
Forecast period: 0600 to 1800 UTC 20 August 2019
Forecast type: BECOMING: Conditions expected to become as follows by 0800 UTC 20 August 2019
Winds: from the SW (230 degrees) at 9 MPH (8 knots; 4.1 m/s)
Visibility: 6 or more miles 10+ km)
Ceiling: at least 12,000 feet AGL
Clouds: few clouds at 2000 feet AGL
Weather: no significant weather forecast for this period
Text: BECMG 2006/2008 23008KT
Forecast period: 1600 to 1800 UTC 20 August 2019
Forecast type: TEMPORARY: The following changes expected for less than half the time period
Visibility: 2.49 miles (4.01 km)
Ceiling: 1400 feet AGL
Clouds: broken clouds at 1400 feet AGL
Weather: RA  (moderate rain)